• Join FlightAware (Why Join?)
  • Login
  • US Flag 
12:03AM EDT


 

Airport Tracker/Info


-or-


 

Live Flight TrackerFlight Track Log ✈ SKQ225 ✈ 25-Apr-2013 ✈ KSDF - KOSU

Flight Track Log - Related Links

Times and Time Zones

All times are in EDT time to prevent confusion due to time zone crossing. See the SKQ225 flight status page for this flight to view local times or setup timezone preferences in your user account.

Time Position Orientation Groundspeed Altitude Reporting Facility
EDT Latitude Longitude Course Direction KTS MPH feet Rate Location/Type
03:11AM 38.1447 -85.6967 139° Southeast 147 169 1,600  Level FAA TRACON SMA TRACON (SMA)
03:11AM 38.1350 -85.6869 142° Southeast 147 169 1,900 1,200 Climbing FAA TRACON SMA TRACON (SMA)
03:12AM 38.1250 -85.6778 144° Southeast 144 166 2,400 1,500 Climbing FAA TRACON SMA TRACON (SMA)
03:12AM 38.1131 -85.6675 146° Southeast 138 159 2,900 1,440 Climbing FAA TRACON SMA TRACON (SMA)
03:12AM 38.1039 -85.6586 143° Southeast 136 157 3,400 1,200 Climbing FAA TRACON SMA TRACON (SMA)
03:13AM 38.1025 -85.6450 97° East 143 165 3,700 720 Climbing FAA TRACON SMA TRACON (SMA)
03:13AM 38.1111 -85.6294 55° Northeast 144 166 3,900 720 Climbing FAA TRACON SMA TRACON (SMA)
03:13AM 38.1203 -85.6183 44° Northeast 148 170 4,200 900 Climbing FAA TRACON SMA TRACON (SMA)
03:14AM 38.1292 -85.6061 47° Northeast 151 174 4,500 840 Climbing FAA TRACON SMA TRACON (SMA)
03:14AM 38.1408 -85.5908 46° Northeast 155 178 4,800 900 Climbing FAA TRACON SMA TRACON (SMA)
03:14AM 38.1503 -85.5789 45° Northeast 156 180 5,100 900 Climbing FAA TRACON SMA TRACON (SMA)
03:15AM 38.1603 -85.5675 42° Northeast 158 182 5,400 840 Climbing FAA TRACON SMA TRACON (SMA)
03:15AM 38.1722 -85.5517 46° Northeast 161 185 5,700 900 Climbing FAA TRACON SMA TRACON (SMA)
03:15AM 38.1817 -85.5386 47° Northeast 162 186 6,000 900 Climbing FAA TRACON SMA TRACON (SMA)
03:16AM 38.1942 -85.5236 43° Northeast 162 186 6,300 900 Climbing FAA TRACON SMA TRACON (SMA)
03:16AM 38.2047 -85.5117 42° Northeast 163 188 6,600 720 Climbing FAA TRACON SMA TRACON (SMA)
03:16AM 38.2147 -85.4983 46° Northeast 167 192 6,800 420 Climbing FAA TRACON SMA TRACON (SMA)
03:17AM 38.2281 -85.4819 44° Northeast 175 201 6,900 240 Climbing FAA TRACON SMA TRACON (SMA)
03:17AM 38.2403 -85.4681 42° Northeast 186 214 7,000 120 Climbing FAA TRACON SMA TRACON (SMA)
03:17AM 38.2517 -85.4525 47° Northeast 194 223 7,000  Level FAA TRACON SMA TRACON (SMA)
03:18AM 38.2664 -85.4331 46° Northeast 198 228 7,000  Level FAA TRACON SMA TRACON (SMA)
03:18AM 38.2792 -85.4186 42° Northeast 198 228 7,000  Level FAA TRACON SMA TRACON (SMA)
03:18AM 38.2917 -85.4039 43° Northeast 199 229 7,000  Level FAA TRACON SMA TRACON (SMA)
03:19AM 38.3039 -85.3881 45° Northeast 201 231 7,000  Level FAA TRACON SMA TRACON (SMA)
03:19AM 38.3189 -85.3689 45° Northeast 200 230 7,000  Level FAA TRACON SMA TRACON (SMA)
03:19AM 38.3314 -85.3539 43° Northeast 201 231 7,000  Level FAA TRACON SMA TRACON (SMA)
03:20AM 38.3464 -85.3347 45° Northeast 201 231 7,000  Level FAA TRACON SMA TRACON (SMA)
03:20AM 38.3578 -85.3183 48° Northeast 200 230 7,000  Level FAA TRACON SMA TRACON (SMA)
03:20AM 38.3706 -85.3036 42° Northeast 200 230 7,000 -180 Level FAA TRACON SMA TRACON (SMA)
03:21AM 38.3864 -85.2844 43° Northeast 204 235 6,900 -180 Descending FAA TRACON SMA TRACON (SMA)
03:21AM 38.3981 -85.2689 46° Northeast 203 234 6,900 120 Level FAA TRACON SMA TRACON (SMA)
03:21AM 38.4139 -85.2497 43° Northeast 202 232 7,000 120 Climbing FAA TRACON SMA TRACON (SMA)
03:22AM 38.4258 -85.2350 44° Northeast 198 228 7,000  Level FAA TRACON SMA TRACON (SMA)
03:22AM 38.4417 -85.2167 42° Northeast 198 228 7,000  Level FAA TRACON SMA TRACON (SMA)
03:22AM 38.4497 -85.2039 51° Northeast 199 229 7,000  Level FAA TRACON SMA TRACON (SMA)
03:23AM 38.4650 -85.1853 44° Northeast 198 228 7,000  Level FAA TRACON SMA TRACON (SMA)
03:23AM 38.4775 -85.1703 43° Northeast 199 229 7,000  Level FAA TRACON SMA TRACON (SMA)
03:23AM 38.4894 -85.1547 46° Northeast 200 230 7,000  Level FAA TRACON SMA TRACON (SMA)
03:24AM 38.5047 -85.1353 45° Northeast 202 232 7,000  Level FAA TRACON SMA TRACON (SMA)
03:24AM 38.5167 -85.1197 46° Northeast 200 230 7,000  Level FAA TRACON SMA TRACON (SMA)
03:24AM 38.5292 -85.1047 43° Northeast 200 230 7,000  Level FAA TRACON SMA TRACON (SMA)
03:25AM 38.5442 -85.0853 45° Northeast 201 231 7,000  Level FAA TRACON SMA TRACON (SMA)
03:25AM 38.5567 -85.0694 45° Northeast 202 232 7,000  Level FAA TRACON SMA TRACON (SMA)
03:25AM 38.5689 -85.0542 44° Northeast 201 231 7,000  Level FAA TRACON SMA TRACON (SMA)
03:26AM 38.5847 -85.0356 43° Northeast 202 232 7,000  Level FAA TRACON SMA TRACON (SMA)
03:26AM 38.6000 -85.0156 46° Northeast 203 234 7,000  Level FAA TRACON SMA TRACON (SMA)
03:26AM 38.6128 -85.0008 42° Northeast 202 232 7,000  Level FAA TRACON SMA TRACON (SMA)
03:27AM 38.6247 -84.9856 45° Northeast 200 230 7,000  Level FAA TRACON SMA TRACON (SMA)
03:27AM 38.6367 -84.9697 46° Northeast 201 231 7,000  Level FAA TRACON SMA TRACON (SMA)
03:27AM 38.6514 -84.9494 47° Northeast 201 231 7,000  Level FAA TRACON SMA TRACON (SMA)
03:28AM 38.6647 -84.9353 40° Northeast 201 231 7,000  Level FAA TRACON SMA TRACON (SMA)
03:28AM 38.6772 -84.9197 44° Northeast 202 232 7,000 120 Level FAA TRACON SMA TRACON (SMA)
03:28AM 38.6911 -84.8992 49° Northeast 200 230 7,100  Climbing FAA TRACON SMA TRACON (SMA)
03:29AM 38.7039 -84.8836 44° Northeast 202 232 7,000 -180 Descending FAA TRACON SMA TRACON (SMA)
03:29AM 38.7164 -84.8686 43° Northeast 203 234 7,000  Level FAA TRACON SMA TRACON (SMA)
03:29AM 38.7294 -84.8533 42° Northeast 203 234 7,000  Level FAA TRACON SMA TRACON (SMA)
03:30AM 38.7436 -84.8331 48° Northeast 202 232 7,000  Level FAA TRACON SMA TRACON (SMA)
03:30AM 38.7564 -84.8181 42° Northeast 201 231 7,000  Level FAA TRACON SMA TRACON (SMA)
03:30AM 38.7683 -84.8019 46° Northeast 202 232 7,000  Level FAA TRACON SMA TRACON (SMA)
03:31AM 38.7842 -84.7828 43° Northeast 203 234 7,000  Level FAA TRACON SMA TRACON (SMA)
03:31AM 38.7972 -84.7681 41° Northeast 202 232 7,000  Level FAA TRACON SMA TRACON (SMA)
03:31AM 38.8000 -84.7500 79° East 203 234 7,000  Level Cincinnati TRACON
03:32AM 38.8256 -84.7261 36° Northeast 201 231 7,000  Level Indianapolis Center
03:33AM 38.8650 -84.6775 44° Northeast 197 227 7,000  Level Indianapolis Center
03:33AM 38.8833 -84.6500 49° Northeast 200 230 7,000 60 Level Cincinnati TRACON
03:34AM 38.9333 -84.6000 38° Northeast 199 229 7,100  Climbing Cincinnati TRACON
03:35AM 38.9667 -84.5500 49° Northeast 199 229 7,100 -60 Level Cincinnati TRACON
03:36AM 39.0000 -84.5000 49° Northeast 203 234 7,000 -60 Descending Cincinnati TRACON
03:37AM 39.0500 -84.4333 46° Northeast 202 232 7,000  Level Cincinnati TRACON
03:38AM 39.0833 -84.3833 49° Northeast 200 230 7,000  Level Cincinnati TRACON
03:39AM 39.1036 -84.3703 27° Northeast 201 231 7,000  Level Indianapolis Center
03:40AM 39.1419 -84.3175 47° Northeast 200 230 7,000  Level Indianapolis Center
03:41AM 39.1817 -84.2658 45° Northeast 201 231 7,000  Level Indianapolis Center
03:42AM 39.2225 -84.2131 45° Northeast 205 236 7,000  Level Indianapolis Center
03:42AM 39.2450 -84.1850 44° Northeast 203 234 7,000  Level Indianapolis Center
03:43AM 39.2619 -84.1617 47° Northeast 200 230 7,000  Level Indianapolis Center
03:43AM 39.2736 -84.1428 51° Northeast 203 234 7,000  Level Indianapolis Center
03:44AM 39.2947 -84.1186 42° Northeast 201 231 7,000  Level Indianapolis Center
03:44AM 39.3131 -84.0942 46° Northeast 201 231 7,000  Level Indianapolis Center
03:45AM 39.3356 -84.0656 45° Northeast 204 235 7,000  Level Indianapolis Center
03:45AM 39.3528 -84.0425 46° Northeast 201 231 7,000  Level Indianapolis Center
03:46AM 39.3750 -84.0142 45° Northeast 202 232 7,000  Level Indianapolis Center
03:46AM 39.3897 -83.9961 43° Northeast 202 232 7,000  Level Indianapolis Center
03:47AM 39.4133 -83.9606 49° Northeast 201 231 7,000  Level Indianapolis Center
03:47AM 39.4297 -83.9417 42° Northeast 205 236 7,000  Level Indianapolis Center
03:48AM 39.4550 -83.9094 45° Northeast 203 234 7,000  Level Indianapolis Center
03:48AM 39.4717 -83.8850 49° Northeast 203 234 7,000  Level Indianapolis Center
03:49AM 39.4950 -83.8553 45° Northeast 204 235 7,000  Level Indianapolis Center
03:49AM 39.5114 -83.8333 46° Northeast 203 234 7,000  Level Indianapolis Center
03:50AM 39.5353 -83.8022 45° Northeast 205 236 7,000  Level Indianapolis Center
03:50AM 39.5508 -83.7814 46° Northeast 203 234 7,000  Level Indianapolis Center
03:51AM 39.5750 -83.7494 46° Northeast 204 235 7,000  Level Indianapolis Center
03:51AM 39.5925 -83.7297 41° Northeast 206 237 7,000  Level Indianapolis Center
03:52AM 39.6150 -83.6953 50° Northeast 205 236 7,000  Level Indianapolis Center
03:52AM 39.6322 -83.6750 42° Northeast 207 238 7,000  Level Indianapolis Center
03:53AM 39.6556 -83.6419 47° Northeast 206 237 7,000 -120 Level Indianapolis Center
03:53AM 39.6717 -83.6231 42° Northeast 210 242 6,900 -420 Descending Indianapolis Center
03:54AM 39.6967 -83.5875 48° Northeast 208 239 6,600 -540 Descending Indianapolis Center
03:54AM 39.7114 -83.5656 49° Northeast 216 249 6,400 -720 Descending Indianapolis Center
03:55AM 39.7389 -83.5319 43° Northeast 213 245 5,900 -720 Descending Indianapolis Center
03:55AM 39.7575 -83.5089 44° Northeast 213 245 5,700 -540 Descending Indianapolis Center
03:56AM 39.7794 -83.4769 48° Northeast 212 244 5,400 -720 Descending Indianapolis Center
03:56AM 39.7992 -83.4544 41° Northeast 206 237 5,000 -840 Descending Indianapolis Center
03:57AM 39.8189 -83.4242 50° Northeast 209 241 4,600 -660 Descending Indianapolis Center
03:57AM 39.8408 -83.3969 44° Northeast 211 243 4,300 -600 Descending Indianapolis Center
03:58AM 39.8578 -83.3719 49° Northeast 206 237 4,000 -720 Descending Indianapolis Center
03:58AM 39.8783 -83.3444 46° Northeast 196 226 3,600 -600 Descending Indianapolis Center
03:59AM 39.8961 -83.3214 45° Northeast 201 231 3,400 -300 Descending Indianapolis Center
04:00AM 39.9392 -83.2617 47° Northeast 200 230 3,200 -240 Descending Indianapolis Center